createdAt,value
2019-01-19T00:00:30.816Z,24.30
2019-01-19T00:01:06.462Z,22.60
2019-01-19T00:01:42.091Z,20.70
2019-01-19T00:02:17.679Z,24.80
2019-01-19T00:02:53.199Z,24.60
2019-01-19T00:03:28.507Z,29.10
2019-01-19T00:04:03.721Z,28.50
2019-01-19T00:04:38.931Z,26.60
2019-01-19T00:05:14.259Z,27.80
2019-01-19T00:05:49.584Z,25.40
2019-01-19T00:06:24.838Z,24.40
2019-01-19T00:07:00.012Z,23.70
2019-01-19T00:07:35.225Z,27.00
2019-01-19T00:08:10.736Z,24.20
2019-01-19T00:08:46.143Z,21.50
2019-01-19T00:09:21.760Z,26.90
2019-01-19T00:09:56.955Z,29.50
2019-01-19T00:10:32.368Z,25.30
2019-01-19T00:11:07.684Z,26.80
2019-01-19T00:11:43.004Z,27.60
2019-01-19T00:12:18.198Z,31.00
2019-01-19T00:12:53.513Z,25.80
2019-01-19T00:13:28.899Z,24.70
2019-01-19T00:14:04.422Z,30.90
2019-01-19T00:14:39.858Z,25.30
2019-01-19T00:15:14.939Z,19.80
2019-01-19T00:15:50.305Z,21.70
2019-01-19T00:16:25.618Z,24.00
2019-01-19T00:17:00.946Z,29.50
2019-01-19T00:17:36.419Z,26.00
2019-01-19T00:18:11.919Z,22.30
2019-01-19T00:18:47.041Z,22.90
2019-01-19T00:19:22.463Z,24.70
2019-01-19T00:19:57.531Z,24.60
2019-01-19T00:20:32.749Z,28.30
2019-01-19T00:21:08.193Z,29.90
2019-01-19T00:21:43.525Z,24.40
2019-01-19T00:22:18.961Z,22.40
2019-01-19T00:22:54.249Z,23.50
2019-01-19T00:23:29.458Z,28.80
2019-01-19T00:24:04.853Z,25.40
2019-01-19T00:24:40.071Z,29.90
2019-01-19T00:25:15.461Z,28.60
2019-01-19T00:25:50.883Z,25.40
2019-01-19T00:26:25.881Z,26.90
2019-01-19T00:27:01.107Z,25.20
2019-01-19T00:27:36.616Z,27.50
2019-01-19T00:28:11.828Z,26.40
2019-01-19T00:28:47.143Z,25.40
2019-01-19T00:29:22.436Z,26.40
2019-01-19T00:29:57.748Z,28.30
2019-01-19T00:30:33.248Z,27.60
2019-01-19T00:31:08.682Z,31.00
2019-01-19T00:31:44.278Z,29.90
2019-01-19T00:32:19.389Z,26.10
2019-01-19T00:32:54.878Z,25.40
2019-01-19T00:33:30.285Z,26.30
2019-01-19T00:34:05.558Z,26.30
2019-01-19T00:34:41.074Z,25.90
2019-01-19T00:35:17.949Z,24.70
2019-01-19T00:35:52.103Z,23.10
2019-01-19T00:36:27.623Z,25.40
2019-01-19T00:37:03.019Z,25.20
2019-01-19T00:37:38.144Z,23.00
2019-01-19T00:38:13.418Z,24.70
2019-01-19T00:38:48.923Z,28.70
2019-01-19T00:39:24.323Z,29.80
2019-01-19T00:39:59.653Z,24.40
2019-01-19T00:40:34.832Z,27.20
2019-01-19T00:41:10.633Z,28.50
2019-01-19T00:41:45.960Z,24.30
2019-01-19T00:42:21.149Z,23.00
2019-01-19T00:42:56.674Z,25.40
2019-01-19T00:43:31.973Z,30.30
2019-01-19T00:44:07.268Z,30.00
2019-01-19T00:44:42.383Z,26.30
2019-01-19T00:45:18.097Z,29.60
2019-01-19T00:45:53.413Z,28.50
2019-01-19T00:46:28.846Z,26.80
2019-01-19T00:47:04.183Z,26.50
2019-01-19T00:47:40.003Z,26.20
2019-01-19T00:48:15.300Z,22.70
2019-01-19T00:48:50.432Z,21.90
2019-01-19T00:49:26.050Z,28.90
2019-01-19T00:50:01.354Z,27.30
2019-01-19T00:50:36.562Z,22.10
2019-01-19T00:51:11.783Z,23.00
2019-01-19T00:51:47.487Z,24.10
2019-01-19T00:52:22.864Z,23.50
2019-01-19T00:52:58.573Z,25.50
2019-01-19T00:53:33.870Z,23.70
2019-01-19T00:54:09.284Z,25.70
2019-01-19T00:54:44.760Z,26.20
2019-01-19T00:55:20.063Z,27.00
2019-01-19T00:55:55.696Z,27.60
2019-01-19T00:56:31.273Z,23.40
2019-01-19T00:57:06.690Z,24.20
2019-01-19T00:57:42.089Z,25.30
2019-01-19T00:58:17.391Z,25.40
2019-01-19T00:58:52.785Z,24.30
2019-01-19T00:59:28.009Z,23.60
2019-01-19T01:00:03.208Z,27.60
2019-01-19T01:00:38.648Z,31.00
2019-01-19T01:01:14.065Z,29.20
2019-01-19T01:01:49.287Z,27.00
2019-01-19T01:02:24.516Z,25.70
2019-01-19T01:02:59.909Z,28.00
2019-01-19T01:03:35.128Z,25.40
2019-01-19T01:04:10.738Z,20.20
2019-01-19T01:04:46.455Z,23.10
2019-01-19T01:05:25.223Z,26.60
2019-01-19T01:05:56.799Z,26.20
2019-01-19T01:06:31.983Z,26.30
2019-01-19T01:07:07.227Z,23.20
2019-01-19T01:07:43.026Z,24.10
2019-01-19T01:08:18.132Z,24.20
2019-01-19T01:08:53.560Z,22.90
2019-01-19T01:09:28.848Z,26.90
2019-01-19T01:10:04.169Z,28.70
2019-01-19T01:10:39.369Z,28.20
2019-01-19T01:11:14.809Z,28.40
2019-01-19T01:11:50.097Z,23.20
2019-01-19T01:12:25.700Z,20.00
2019-01-19T01:13:00.988Z,23.00
2019-01-19T01:13:36.504Z,26.50
2019-01-19T01:14:11.582Z,25.20
2019-01-19T01:14:46.997Z,26.30
2019-01-19T01:15:22.383Z,26.00
2019-01-19T01:15:57.708Z,26.60
2019-01-19T01:16:33.351Z,31.80
2019-01-19T01:17:08.521Z,29.70
2019-01-19T01:17:43.728Z,22.30
2019-01-19T01:18:19.029Z,25.30
2019-01-19T01:18:54.356Z,25.60
2019-01-19T01:19:29.650Z,25.60
2019-01-19T01:20:05.067Z,24.40
2019-01-19T01:20:40.351Z,26.50
2019-01-19T01:21:15.598Z,23.70
2019-01-19T01:21:50.881Z,27.70
2019-01-19T01:22:26.499Z,28.50
2019-01-19T01:23:01.909Z,24.80
2019-01-19T01:23:37.307Z,27.90
2019-01-19T01:24:12.809Z,23.90
2019-01-19T01:24:48.020Z,26.50
2019-01-19T01:25:23.530Z,27.70
2019-01-19T01:25:58.928Z,24.40
2019-01-19T01:26:34.447Z,26.20
2019-01-19T01:27:10.132Z,27.70
2019-01-19T01:27:46.113Z,25.50
2019-01-19T01:28:21.401Z,30.60
2019-01-19T01:28:56.609Z,25.40
2019-01-19T01:29:31.832Z,24.90
2019-01-19T01:30:07.309Z,26.00
2019-01-19T01:30:42.716Z,26.80
2019-01-19T01:31:17.849Z,25.70
2019-01-19T01:31:53.155Z,26.70
2019-01-19T01:32:28.351Z,25.90
2019-01-19T01:33:03.667Z,26.70
2019-01-19T01:33:39.068Z,28.10
2019-01-19T01:34:14.487Z,25.80
2019-01-19T01:34:49.875Z,22.20
2019-01-19T01:35:32.428Z,25.40
2019-01-19T01:36:00.499Z,28.90
2019-01-19T01:36:36.017Z,22.10
2019-01-19T01:37:11.515Z,24.00
2019-01-19T01:37:46.806Z,25.40
2019-01-19T01:38:22.113Z,29.80
2019-01-19T01:38:57.499Z,31.10
2019-01-19T01:39:33.021Z,29.60
2019-01-19T01:40:08.407Z,32.30
2019-01-19T01:40:44.059Z,31.10
2019-01-19T01:41:19.578Z,25.40
2019-01-19T01:41:54.990Z,25.90
2019-01-19T01:42:30.435Z,22.60
2019-01-19T01:43:05.854Z,21.20
2019-01-19T01:43:41.276Z,23.20
2019-01-19T01:44:16.791Z,22.10
2019-01-19T01:44:52.213Z,21.40
2019-01-19T01:45:27.288Z,25.30
2019-01-19T01:46:03.146Z,25.80
2019-01-19T01:46:38.743Z,22.60
2019-01-19T01:47:14.196Z,26.80
2019-01-19T01:47:49.260Z,23.50
2019-01-19T01:48:24.665Z,20.70
2019-01-19T01:48:59.841Z,21.70
2019-01-19T01:49:35.246Z,20.90
2019-01-19T01:50:10.565Z,23.30
2019-01-19T01:50:45.685Z,24.70
2019-01-19T01:51:21.089Z,22.30
2019-01-19T01:51:56.180Z,25.20
2019-01-19T01:52:31.387Z,26.70
2019-01-19T01:53:07.081Z,22.40
2019-01-19T01:53:42.290Z,21.10
2019-01-19T01:54:17.389Z,26.80
2019-01-19T01:54:52.722Z,27.40
2019-01-19T01:55:28.140Z,21.00
2019-01-19T01:56:03.662Z,24.70
2019-01-19T01:56:38.781Z,25.90
2019-01-19T01:57:14.252Z,25.00
2019-01-19T01:57:49.660Z,25.00
2019-01-19T01:58:24.747Z,24.70
2019-01-19T01:59:00.173Z,23.40
2019-01-19T01:59:35.562Z,20.90
2019-01-19T02:00:11.370Z,23.90
2019-01-19T02:00:46.780Z,28.20
2019-01-19T02:01:22.406Z,23.50
2019-01-19T02:01:57.591Z,23.20
2019-01-19T02:02:32.815Z,23.60
2019-01-19T02:03:08.234Z,27.00
2019-01-19T02:03:43.852Z,23.30
2019-01-19T02:04:19.177Z,20.60
2019-01-19T02:04:54.776Z,24.90
2019-01-19T02:05:30.091Z,24.00
2019-01-19T02:06:05.415Z,22.70
2019-01-19T02:06:40.543Z,25.20
2019-01-19T02:07:16.031Z,26.70
2019-01-19T02:07:51.640Z,25.10
2019-01-19T02:08:26.945Z,23.50
2019-01-19T02:09:02.043Z,20.10
2019-01-19T02:09:37.458Z,27.60
2019-01-19T02:10:12.546Z,27.60
2019-01-19T02:10:48.005Z,21.40
2019-01-19T02:11:23.386Z,21.80
2019-01-19T02:11:58.610Z,22.00
2019-01-19T02:12:34.002Z,24.50
2019-01-19T02:13:09.409Z,22.70
2019-01-19T02:13:44.607Z,22.60
2019-01-19T02:14:20.117Z,26.00
2019-01-19T02:14:55.517Z,27.70
2019-01-19T02:15:31.034Z,24.80
2019-01-19T02:16:06.540Z,28.60
2019-01-19T02:16:41.991Z,29.30
2019-01-19T02:17:17.210Z,24.20
2019-01-19T02:17:52.300Z,21.80
2019-01-19T02:18:27.404Z,21.80
2019-01-19T02:19:02.893Z,22.70
2019-01-19T02:19:38.100Z,24.50
2019-01-19T02:20:13.491Z,24.80
2019-01-19T02:20:48.730Z,24.80
2019-01-19T02:21:23.912Z,27.00
2019-01-19T02:21:59.531Z,28.20
2019-01-19T02:22:34.820Z,26.90
2019-01-19T02:23:10.249Z,25.10
2019-01-19T02:23:45.459Z,26.50
2019-01-19T02:24:20.551Z,24.50
2019-01-19T02:24:55.964Z,24.20
2019-01-19T02:25:31.243Z,20.90
2019-01-19T02:26:06.667Z,22.60
2019-01-19T02:26:41.757Z,25.30
2019-01-19T02:27:17.076Z,27.80
2019-01-19T02:27:52.482Z,24.90
2019-01-19T02:28:27.600Z,24.10
2019-01-19T02:29:03.208Z,26.90
2019-01-19T02:29:39.546Z,24.40
2019-01-19T02:30:14.769Z,23.30
2019-01-19T02:30:50.193Z,22.50
2019-01-19T02:31:25.519Z,25.00
2019-01-19T02:32:00.986Z,20.50
2019-01-19T02:32:36.388Z,22.00
2019-01-19T02:33:11.577Z,24.80
2019-01-19T02:33:46.905Z,20.60
2019-01-19T02:34:22.387Z,20.60
2019-01-19T02:34:58.009Z,23.60
2019-01-19T02:35:33.394Z,21.20
2019-01-19T02:36:08.850Z,21.40
2019-01-19T02:36:44.467Z,22.10
2019-01-19T02:37:19.767Z,20.70
2019-01-19T02:37:55.305Z,25.50
2019-01-19T02:38:30.991Z,25.20
2019-01-19T02:39:06.204Z,23.20
2019-01-19T02:39:41.677Z,22.10
2019-01-19T02:40:17.108Z,21.20
2019-01-19T02:40:52.527Z,28.60
2019-01-19T02:41:27.755Z,28.50
2019-01-19T02:42:03.344Z,23.70
2019-01-19T02:42:38.557Z,24.40
2019-01-19T02:43:13.956Z,27.80
2019-01-19T02:43:49.163Z,23.00
2019-01-19T02:44:24.390Z,20.50
2019-01-19T02:44:59.831Z,22.10
2019-01-19T02:45:35.248Z,24.10
2019-01-19T02:46:10.787Z,24.60
2019-01-19T02:46:46.106Z,24.80
2019-01-19T02:47:21.496Z,24.30
2019-01-19T02:47:56.914Z,24.10
2019-01-19T02:48:32.234Z,25.50
2019-01-19T02:49:07.754Z,24.30
2019-01-19T02:49:42.993Z,24.10
2019-01-19T02:50:18.490Z,22.80
2019-01-19T02:50:54.160Z,20.20
2019-01-19T02:51:29.360Z,20.90
2019-01-19T02:52:04.875Z,22.30
2019-01-19T02:52:40.158Z,24.40
2019-01-19T02:53:15.470Z,23.70
2019-01-19T02:53:51.069Z,25.10
2019-01-19T02:54:26.688Z,25.60
2019-01-19T02:55:02.196Z,21.10
2019-01-19T02:55:37.982Z,22.30
2019-01-19T02:56:13.703Z,25.10
2019-01-19T02:56:49.220Z,24.90
2019-01-19T02:57:24.642Z,20.60
2019-01-19T02:58:00.141Z,22.60
2019-01-19T02:58:35.463Z,24.60
2019-01-19T02:59:10.944Z,23.80
2019-01-19T02:59:46.167Z,26.00
2019-01-19T03:00:21.577Z,26.40
2019-01-19T03:00:57.241Z,24.80
2019-01-19T03:01:32.941Z,23.50
2019-01-19T03:02:08.450Z,21.70
2019-01-19T03:02:43.847Z,21.80
2019-01-19T03:03:19.180Z,20.00
2019-01-19T03:03:54.726Z,23.60
2019-01-19T03:04:30.151Z,24.30
2019-01-19T03:05:05.742Z,21.00
2019-01-19T03:05:41.038Z,21.90
2019-01-19T03:06:16.280Z,22.00
2019-01-19T03:06:51.707Z,20.50
2019-01-19T03:07:27.028Z,22.00
2019-01-19T03:08:02.412Z,23.10
2019-01-19T03:08:37.822Z,20.00
2019-01-19T03:09:13.227Z,20.40
2019-01-19T03:09:50.049Z,20.30
2019-01-19T03:10:23.774Z,22.50
2019-01-19T03:10:59.281Z,21.10
2019-01-19T03:11:34.586Z,22.70
2019-01-19T03:12:09.686Z,22.90
2019-01-19T03:12:45.338Z,22.00
2019-01-19T03:13:20.752Z,20.70
2019-01-19T03:13:56.088Z,20.10
2019-01-19T03:14:31.507Z,17.20
2019-01-19T03:15:07.225Z,17.90
2019-01-19T03:15:42.619Z,20.10
2019-01-19T03:16:18.370Z,25.90
2019-01-19T03:16:53.819Z,22.80
2019-01-19T03:17:29.011Z,19.10
2019-01-19T03:18:04.429Z,18.00
2019-01-19T03:18:39.738Z,19.20
2019-01-19T03:19:15.264Z,20.00
2019-01-19T03:19:50.543Z,21.70
2019-01-19T03:20:26.066Z,19.80
2019-01-19T03:21:01.485Z,22.50
2019-01-19T03:21:36.697Z,23.10
2019-01-19T03:22:11.907Z,22.30
2019-01-19T03:22:47.134Z,20.80
2019-01-19T03:23:22.466Z,19.80
2019-01-19T03:23:57.766Z,18.40
2019-01-19T03:24:33.087Z,19.50
2019-01-19T03:25:08.455Z,21.10
2019-01-19T03:25:44.105Z,21.90
2019-01-19T03:26:19.803Z,18.10
2019-01-19T03:26:55.137Z,21.90
2019-01-19T03:27:30.429Z,26.40
2019-01-19T03:28:05.835Z,18.10
2019-01-19T03:28:41.342Z,16.70
2019-01-19T03:29:16.653Z,19.20
2019-01-19T03:29:51.981Z,19.60
2019-01-19T03:30:27.481Z,19.80
2019-01-19T03:31:03.373Z,22.20
2019-01-19T03:31:38.746Z,19.40
2019-01-19T03:32:13.976Z,16.10
2019-01-19T03:32:49.171Z,17.20
2019-01-19T03:33:24.684Z,18.30
2019-01-19T03:33:59.880Z,20.70
2019-01-19T03:34:35.295Z,19.80
2019-01-19T03:35:10.513Z,18.90
2019-01-19T03:35:45.953Z,18.00
2019-01-19T03:36:21.443Z,22.30
2019-01-19T03:36:56.882Z,21.90
2019-01-19T03:37:32.126Z,20.60
2019-01-19T03:38:07.522Z,19.30
2019-01-19T03:38:43.035Z,17.80
2019-01-19T03:39:18.633Z,18.00
2019-01-19T03:39:53.936Z,17.90
2019-01-19T03:40:29.138Z,16.70
2019-01-19T03:41:04.474Z,17.10
2019-01-19T03:41:39.860Z,19.40
2019-01-19T03:42:15.089Z,18.30
2019-01-19T03:42:50.370Z,21.10
2019-01-19T03:43:25.481Z,22.40
2019-01-19T03:44:00.617Z,20.90
2019-01-19T03:44:35.697Z,23.00
2019-01-19T03:45:10.824Z,21.70
2019-01-19T03:45:46.436Z,22.80
2019-01-19T03:46:21.841Z,20.60
2019-01-19T03:46:57.531Z,21.20
2019-01-19T03:47:33.162Z,23.70
2019-01-19T03:48:08.454Z,23.00
2019-01-19T03:48:43.876Z,23.80
2019-01-19T03:49:19.368Z,23.10
2019-01-19T03:49:54.780Z,20.50
2019-01-19T03:50:30.065Z,20.00
2019-01-19T03:51:05.566Z,25.60
2019-01-19T03:51:41.001Z,24.30
2019-01-19T03:52:16.204Z,21.20
2019-01-19T03:52:51.630Z,20.30
2019-01-19T03:53:26.718Z,19.60
2019-01-19T03:54:02.044Z,22.10
2019-01-19T03:54:37.569Z,21.10
2019-01-19T03:55:12.592Z,24.70
2019-01-19T03:55:47.799Z,22.50
2019-01-19T03:56:23.302Z,19.20
2019-01-19T03:56:58.626Z,20.00
2019-01-19T03:57:33.621Z,20.60
2019-01-19T03:58:08.875Z,18.60
2019-01-19T03:58:44.167Z,19.20
2019-01-19T03:59:19.369Z,23.30
2019-01-19T03:59:54.807Z,21.60
2019-01-19T04:00:30.121Z,22.00
2019-01-19T04:01:05.441Z,20.00
2019-01-19T04:01:40.658Z,22.30
2019-01-19T04:02:15.949Z,22.80
2019-01-19T04:02:51.165Z,19.70
2019-01-19T04:03:26.796Z,22.30
2019-01-19T04:04:01.998Z,20.30
2019-01-19T04:04:37.517Z,20.00
2019-01-19T04:05:13.110Z,21.50
2019-01-19T04:05:48.580Z,23.00
2019-01-19T04:06:24.180Z,21.50
2019-01-19T04:06:59.613Z,21.20
2019-01-19T04:07:34.902Z,22.30
2019-01-19T04:08:10.317Z,21.30
2019-01-19T04:08:45.531Z,19.00
2019-01-19T04:09:20.942Z,23.70
2019-01-19T04:09:56.239Z,24.50
2019-01-19T04:10:31.566Z,20.20
2019-01-19T04:11:07.122Z,20.40
2019-01-19T04:11:42.505Z,21.30
2019-01-19T04:12:17.718Z,19.70
2019-01-19T04:12:53.024Z,23.60
2019-01-19T04:13:28.741Z,22.50
2019-01-19T04:14:04.238Z,20.80
2019-01-19T04:14:39.858Z,19.50
2019-01-19T04:15:15.268Z,19.60
2019-01-19T04:15:50.503Z,19.50
2019-01-19T04:16:26.014Z,16.30
2019-01-19T04:17:01.341Z,17.60
2019-01-19T04:17:36.668Z,19.30
2019-01-19T04:18:11.768Z,23.60
2019-01-19T04:18:47.304Z,22.70
2019-01-19T04:19:22.817Z,18.90
2019-01-19T04:19:58.247Z,19.50
2019-01-19T04:20:33.433Z,21.90
2019-01-19T04:21:09.085Z,21.90
2019-01-19T04:21:44.185Z,20.70
2019-01-19T04:22:19.702Z,21.00
2019-01-19T04:22:54.895Z,19.80
2019-01-19T04:23:29.915Z,21.50
2019-01-19T04:24:05.468Z,21.40
2019-01-19T04:24:40.855Z,20.30
2019-01-19T04:25:16.269Z,18.30
2019-01-19T04:25:51.585Z,18.70
2019-01-19T04:26:27.007Z,18.00
2019-01-19T04:27:02.541Z,14.70
2019-01-19T04:27:37.963Z,18.90
2019-01-19T04:28:13.357Z,18.20
2019-01-19T04:28:48.785Z,18.20
2019-01-19T04:29:24.206Z,20.10
2019-01-19T04:29:59.734Z,22.90
2019-01-19T04:30:34.951Z,20.20
2019-01-19T04:31:10.583Z,17.40
2019-01-19T04:31:45.912Z,16.60
2019-01-19T04:32:21.108Z,18.00
2019-01-19T04:32:56.725Z,23.00
2019-01-19T04:33:32.024Z,22.90
2019-01-19T04:34:07.343Z,18.00
2019-01-19T04:34:42.633Z,17.90
2019-01-19T04:35:17.951Z,18.90
2019-01-19T04:35:53.390Z,18.30
2019-01-19T04:36:28.615Z,19.50
2019-01-19T04:37:03.934Z,28.20
2019-01-19T04:37:39.219Z,25.30
2019-01-19T04:38:14.696Z,18.20
2019-01-19T04:38:49.877Z,17.50
2019-01-19T04:39:25.128Z,18.70
2019-01-19T04:40:00.867Z,20.70
2019-01-19T04:40:36.393Z,20.60
2019-01-19T04:41:11.910Z,20.60
2019-01-19T04:41:47.122Z,19.70
2019-01-19T04:42:22.519Z,17.00
2019-01-19T04:42:57.749Z,17.80
2019-01-19T04:43:32.754Z,20.20
2019-01-19T04:44:08.017Z,19.10
2019-01-19T04:44:43.359Z,18.40
2019-01-19T04:45:19.005Z,19.10
2019-01-19T04:45:54.289Z,17.90
2019-01-19T04:46:29.587Z,19.20
2019-01-19T04:47:04.720Z,21.90
2019-01-19T04:47:40.009Z,21.90
2019-01-19T04:48:15.633Z,17.50
2019-01-19T04:48:51.324Z,18.70
2019-01-19T04:49:26.454Z,22.90
2019-01-19T04:50:01.745Z,16.70
2019-01-19T04:50:37.173Z,18.80
2019-01-19T04:51:12.541Z,19.80
2019-01-19T04:51:47.768Z,17.70
2019-01-19T04:52:23.392Z,17.50
2019-01-19T04:52:58.900Z,20.80
2019-01-19T04:53:34.212Z,23.20
2019-01-19T04:54:09.205Z,25.70
2019-01-19T04:54:44.521Z,24.50
2019-01-19T04:55:20.360Z,16.90
2019-01-19T04:55:55.684Z,15.90
2019-01-19T04:56:31.007Z,15.60
2019-01-19T04:57:06.239Z,18.10
2019-01-19T04:57:41.476Z,17.50
2019-01-19T04:58:16.680Z,20.60
2019-01-19T04:58:51.902Z,19.20
2019-01-19T04:59:27.406Z,23.90
2019-01-19T05:00:02.735Z,23.80
2019-01-19T05:00:38.062Z,20.50
2019-01-19T05:01:13.318Z,20.60
2019-01-19T05:01:48.805Z,17.50
2019-01-19T05:02:24.237Z,18.70
2019-01-19T05:02:59.430Z,19.30
2019-01-19T05:03:34.764Z,20.90
2019-01-19T05:04:10.314Z,20.60
2019-01-19T05:04:45.896Z,20.60
2019-01-19T05:05:21.211Z,19.20
2019-01-19T05:05:56.638Z,25.90
2019-01-19T05:06:32.171Z,24.00
2019-01-19T05:07:07.302Z,24.20
2019-01-19T05:07:42.827Z,22.90
2019-01-19T05:08:18.214Z,18.60
2019-01-19T05:08:53.533Z,18.10
2019-01-19T05:09:29.125Z,14.20
2019-01-19T05:10:04.446Z,13.40
2019-01-19T05:10:39.666Z,16.40
2019-01-19T05:11:14.768Z,16.50
2019-01-19T05:11:50.482Z,16.80
2019-01-19T05:12:25.783Z,19.10
2019-01-19T05:13:01.168Z,18.90
2019-01-19T05:13:36.437Z,18.70
2019-01-19T05:14:12.215Z,16.50
2019-01-19T05:14:47.504Z,18.40
2019-01-19T05:15:22.929Z,17.40
2019-01-19T05:15:58.234Z,18.90
2019-01-19T05:16:33.344Z,20.20
2019-01-19T05:17:08.544Z,17.10
2019-01-19T05:17:43.957Z,21.90
2019-01-19T05:18:19.473Z,23.80
2019-01-19T05:18:54.658Z,18.90
2019-01-19T05:19:30.178Z,15.80
2019-01-19T05:20:05.287Z,17.60
2019-01-19T05:20:40.510Z,16.60
2019-01-19T05:21:15.822Z,17.30
2019-01-19T05:21:51.056Z,20.70
2019-01-19T05:22:26.697Z,20.70
2019-01-19T05:23:01.927Z,16.30
2019-01-19T05:23:37.515Z,14.50
2019-01-19T05:24:12.736Z,16.10
2019-01-19T05:24:48.373Z,18.40
2019-01-19T05:25:23.790Z,18.20
2019-01-19T05:25:59.243Z,18.10
2019-01-19T05:26:34.638Z,20.50
2019-01-19T05:27:10.155Z,20.20
2019-01-19T05:27:45.585Z,16.60
2019-01-19T05:28:20.906Z,19.10
2019-01-19T05:28:56.102Z,21.30
2019-01-19T05:29:31.664Z,18.40
2019-01-19T05:30:06.962Z,19.50
2019-01-19T05:30:42.602Z,20.10
2019-01-19T05:31:17.953Z,18.30
2019-01-19T05:31:53.454Z,21.40
2019-01-19T05:32:28.789Z,18.00
2019-01-19T05:33:03.874Z,17.30
2019-01-19T05:33:39.379Z,19.70
2019-01-19T05:34:14.561Z,21.00
2019-01-19T05:34:50.034Z,21.00
2019-01-19T05:35:25.566Z,17.10
2019-01-19T05:36:01.035Z,18.60
2019-01-19T05:36:38.428Z,20.20
2019-01-19T05:37:12.189Z,16.60
2019-01-19T05:37:47.723Z,20.10
2019-01-19T05:38:23.223Z,22.00
2019-01-19T05:38:58.737Z,22.60
2019-01-19T05:39:34.012Z,20.20
2019-01-19T05:40:09.235Z,17.80
2019-01-19T05:40:44.847Z,18.70
2019-01-19T05:41:20.064Z,20.20
2019-01-19T05:41:55.478Z,18.10
2019-01-19T05:42:30.813Z,20.40
2019-01-19T05:43:06.113Z,20.00
2019-01-19T05:43:41.528Z,22.50
2019-01-19T05:44:19.278Z,19.10
2019-01-19T05:44:54.461Z,15.70
2019-01-19T05:45:29.796Z,19.20
2019-01-19T05:46:05.138Z,19.20
2019-01-19T05:46:40.365Z,19.00
2019-01-19T05:47:15.572Z,18.00
2019-01-19T05:47:51.088Z,17.30
2019-01-19T05:48:26.389Z,19.80
2019-01-19T05:49:01.805Z,19.70
2019-01-19T05:49:37.531Z,23.10
2019-01-19T05:50:12.743Z,23.40
2019-01-19T05:50:47.926Z,18.90
2019-01-19T05:51:23.024Z,18.30
2019-01-19T05:51:58.453Z,19.90
2019-01-19T05:52:33.955Z,18.00
2019-01-19T05:53:09.368Z,15.10
2019-01-19T05:53:44.970Z,18.20
2019-01-19T05:54:20.396Z,17.40
2019-01-19T05:54:55.827Z,16.20
2019-01-19T05:55:31.165Z,17.10
2019-01-19T05:56:06.596Z,17.90
2019-01-19T05:56:42.015Z,20.30
2019-01-19T05:57:17.313Z,24.20
2019-01-19T05:57:52.513Z,21.30
2019-01-19T05:58:27.941Z,18.00
2019-01-19T05:59:03.454Z,17.70
2019-01-19T05:59:38.558Z,16.80
2019-01-19T06:00:13.955Z,20.60
2019-01-19T06:00:49.308Z,19.80
2019-01-19T06:01:24.615Z,19.50
2019-01-19T06:01:59.747Z,18.10
2019-01-19T06:02:35.037Z,19.50
2019-01-19T06:03:10.468Z,17.70
2019-01-19T06:03:45.767Z,16.80
2019-01-19T06:04:21.472Z,18.20
2019-01-19T06:04:57.002Z,17.80
2019-01-19T06:05:32.598Z,17.40
2019-01-19T06:06:07.889Z,18.40
2019-01-19T06:06:46.981Z,18.70
2019-01-19T06:07:19.101Z,17.90
2019-01-19T06:07:54.396Z,20.90
2019-01-19T06:08:29.912Z,18.50
2019-01-19T06:09:05.312Z,15.40
2019-01-19T06:09:40.623Z,16.80
2019-01-19T06:10:16.024Z,20.50
2019-01-19T06:10:51.371Z,17.70
2019-01-19T06:11:26.803Z,17.00
2019-01-19T06:12:02.417Z,18.30
2019-01-19T06:12:38.057Z,18.90
2019-01-19T06:13:13.356Z,13.50
2019-01-19T06:13:48.875Z,13.90
2019-01-19T06:14:24.073Z,16.10
2019-01-19T06:14:59.298Z,15.90
2019-01-19T06:15:34.497Z,15.90
2019-01-19T06:16:09.851Z,19.10
2019-01-19T06:16:45.260Z,19.70
2019-01-19T06:17:20.680Z,16.70
2019-01-19T06:17:55.808Z,17.90
2019-01-19T06:18:30.998Z,19.30
2019-01-19T06:19:06.619Z,19.70
2019-01-19T06:19:41.911Z,19.60
2019-01-19T06:20:17.578Z,15.70
2019-01-19T06:20:52.987Z,16.60
2019-01-19T06:21:28.509Z,18.90
2019-01-19T06:22:03.912Z,18.60
2019-01-19T06:22:39.443Z,19.10
2019-01-19T06:23:14.954Z,16.60
2019-01-19T06:23:50.269Z,18.80
2019-01-19T06:24:25.694Z,17.10
2019-01-19T06:25:00.917Z,16.70
2019-01-19T06:25:36.539Z,19.90
2019-01-19T06:26:12.151Z,22.50
2019-01-19T06:26:47.565Z,21.50
2019-01-19T06:27:22.869Z,17.90
2019-01-19T06:27:58.579Z,15.90
2019-01-19T06:28:33.779Z,18.80
2019-01-19T06:29:09.192Z,23.30
2019-01-19T06:29:44.477Z,19.10
2019-01-19T06:30:19.888Z,16.80
2019-01-19T06:30:55.311Z,20.70
2019-01-19T06:31:30.430Z,22.30
2019-01-19T06:32:05.749Z,17.40
2019-01-19T06:32:41.042Z,18.80
2019-01-19T06:33:16.463Z,18.40
2019-01-19T06:33:51.863Z,15.00
2019-01-19T06:34:27.192Z,17.20
2019-01-19T06:35:02.542Z,16.90
2019-01-19T06:35:38.022Z,16.70
2019-01-19T06:36:13.540Z,18.00
2019-01-19T06:36:54.859Z,14.60
2019-01-19T06:37:24.148Z,15.40
2019-01-19T06:37:59.658Z,23.80
2019-01-19T06:38:34.981Z,26.60
2019-01-19T06:39:10.289Z,16.60
2019-01-19T06:39:45.696Z,13.50
2019-01-19T06:40:21.087Z,14.30
2019-01-19T06:40:56.641Z,19.00
2019-01-19T06:41:32.333Z,19.00
2019-01-19T06:42:07.853Z,16.60
2019-01-19T06:42:43.453Z,16.60
2019-01-19T06:43:18.875Z,15.80
2019-01-19T06:43:53.910Z,16.90
2019-01-19T06:44:29.204Z,17.00
2019-01-19T06:45:04.671Z,17.70
2019-01-19T06:45:39.768Z,17.40
2019-01-19T06:46:15.201Z,18.10
2019-01-19T06:46:50.492Z,20.70
2019-01-19T06:47:25.705Z,19.40
2019-01-19T06:48:01.006Z,21.10
2019-01-19T06:48:36.436Z,19.00
2019-01-19T06:49:11.645Z,14.40
2019-01-19T06:49:47.177Z,15.10
2019-01-19T06:50:22.474Z,15.70
2019-01-19T06:50:57.711Z,16.70
2019-01-19T06:51:33.144Z,12.50
2019-01-19T06:52:08.446Z,17.40
2019-01-19T06:52:43.796Z,19.10
2019-01-19T06:53:19.293Z,19.60
2019-01-19T06:54:01.308Z,17.70
2019-01-19T06:54:29.858Z,17.50
2019-01-19T06:55:05.190Z,17.40
2019-01-19T06:55:40.476Z,18.30
2019-01-19T06:56:15.833Z,22.20
2019-01-19T06:56:51.228Z,21.80
2019-01-19T06:57:27.001Z,17.40
2019-01-19T06:58:01.734Z,17.60
2019-01-19T06:58:36.953Z,18.00
2019-01-19T06:59:17.327Z,20.70
2019-01-19T06:59:48.186Z,20.80
2019-01-19T07:00:23.425Z,17.80
2019-01-19T07:00:58.564Z,16.60
2019-01-19T07:01:33.792Z,17.00
2019-01-19T07:02:09.097Z,23.00
2019-01-19T07:02:44.324Z,25.60
2019-01-19T07:03:19.916Z,20.30
2019-01-19T07:03:55.136Z,22.20
2019-01-19T07:04:30.543Z,18.70
2019-01-19T07:05:05.960Z,16.70
2019-01-19T07:05:41.397Z,17.90
2019-01-19T07:06:16.529Z,18.90
2019-01-19T07:06:51.750Z,18.40
2019-01-19T07:07:27.352Z,18.50
2019-01-19T07:08:02.871Z,16.00
2019-01-19T07:08:38.173Z,15.40
2019-01-19T07:09:13.805Z,16.70
2019-01-19T07:09:49.214Z,14.30
2019-01-19T07:10:24.440Z,18.50
2019-01-19T07:10:59.713Z,21.30
2019-01-19T07:11:35.443Z,18.40
2019-01-19T07:12:10.816Z,20.60
2019-01-19T07:12:46.213Z,23.00
2019-01-19T07:13:21.342Z,15.10
2019-01-19T07:13:56.435Z,17.10
2019-01-19T07:14:31.638Z,19.60
2019-01-19T07:15:06.939Z,17.60
2019-01-19T07:15:42.191Z,17.20
2019-01-19T07:16:17.801Z,17.60
2019-01-19T07:16:53.133Z,16.40
2019-01-19T07:17:28.540Z,16.10
2019-01-19T07:18:03.954Z,15.70
2019-01-19T07:18:39.237Z,20.20
2019-01-19T07:19:14.971Z,21.00
2019-01-19T07:19:50.497Z,18.60
2019-01-19T07:20:25.722Z,18.30
2019-01-19T07:21:01.072Z,21.20
2019-01-19T07:21:36.375Z,22.30
2019-01-19T07:22:11.896Z,17.70
2019-01-19T07:22:47.180Z,19.10
2019-01-19T07:23:22.493Z,20.80
2019-01-19T07:23:57.687Z,19.60
2019-01-19T07:24:33.224Z,24.60
2019-01-19T07:25:08.428Z,25.30
2019-01-19T07:25:45.442Z,18.40
2019-01-19T07:26:19.300Z,19.50
2019-01-19T07:26:54.798Z,22.30
2019-01-19T07:27:30.208Z,19.00
2019-01-19T07:28:05.612Z,16.50
2019-01-19T07:28:41.127Z,20.50
2019-01-19T07:29:16.332Z,22.90
2019-01-19T07:29:51.450Z,25.50
2019-01-19T07:30:26.938Z,23.00
2019-01-19T07:31:02.274Z,20.20
2019-01-19T07:31:37.583Z,19.20
2019-01-19T07:32:13.003Z,21.60
2019-01-19T07:32:48.236Z,23.60
2019-01-19T07:33:23.852Z,20.20
2019-01-19T07:33:58.865Z,17.90
2019-01-19T07:34:34.268Z,20.20
2019-01-19T07:35:09.801Z,19.50
2019-01-19T07:35:45.116Z,23.20